Time;durP1;ratioP1;P1;durP2;ratioP2;P2;SDS_P1;SDS_P2;PMS_P1;PMS_P2;Temp;Humidity;BMP_temperature;BMP_pressure;BME280_temperature;BME280_humidity;BME280_pressure;Samples;Min_cycle;Max_cycle;Signal;HPM_P1;HPM_P2
2022/10/22 00:00:54;;;;;;;;;;;15.70;99.90;;;;;;5033084;28;19913;-69
2022/10/22 00:03:20;;;;;;;;;;;15.80;99.90;;;;;;5032905;28;19909;-70
2022/10/22 00:05:46;;;;;;;;;;;15.80;99.90;;;;;;5032627;28;19987;-71
2022/10/22 00:08:13;;;;;;;;;;;15.60;99.90;;;;;;5033672;28;19919;-70
2022/10/22 00:10:38;;;;;;;;;;;15.50;99.90;;;;;;5033660;28;20423;-70
2022/10/22 00:13:04;;;;;;;;;;;15.40;99.90;;;;;;5033930;28;19905;-70
2022/10/22 00:15:29;;;;;;;;;;;15.50;99.90;;;;;;5034048;28;19905;-70
2022/10/22 00:17:55;;;;;;;;;;;15.50;99.90;;;;;;5032545;28;20453;-70
2022/10/22 00:20:21;;;;;;;;;;;15.50;99.90;;;;;;5033732;28;19909;-70
2022/10/22 00:22:47;;;;;;;;;;;15.50;99.90;;;;;;5032734;28;19912;-70
2022/10/22 00:25:12;;;;;;;;;;;15.40;99.90;;;;;;5033943;28;20365;-69
2022/10/22 00:27:38;;;;;;;;;;;15.50;99.90;;;;;;5034892;28;19940;-70
2022/10/22 00:30:04;;;;;;;;;;;15.50;99.90;;;;;;5034355;28;20361;-69
2022/10/22 00:32:29;;;;;;;;;;;15.50;99.90;;;;;;5032275;28;19905;-70
2022/10/22 00:34:54;;;;;;;;;;;15.50;99.90;;;;;;5033619;28;19952;-70
2022/10/22 00:37:20;;;;;;;;;;;15.50;99.90;;;;;;5032188;28;19913;-69
2022/10/22 00:39:45;;;;;;;;;;;15.50;99.90;;;;;;5033248;28;20387;-70
2022/10/22 00:42:15;;;;;;;;;;;15.50;99.90;;;;;;5034269;28;20427;-68
2022/10/22 00:44:59;;;;;;;;;;;15.50;99.90;;;;;;5028225;28;20378;-69
2022/10/22 00:47:27;;;;;;;;;;;15.50;99.90;;;;;;5012971;28;19921;-71
2022/10/22 00:49:52;;;;;;;;;;;15.40;99.90;;;;;;5014957;28;19905;-70
2022/10/22 00:52:18;;;;;;;;;;;15.30;99.90;;;;;;5017882;28;19921;-70
2022/10/22 00:54:44;;;;;;;;;;;15.30;99.90;;;;;;5019481;28;19909;-70
2022/10/22 00:57:09;;;;;;;;;;;15.20;99.90;;;;;;5017012;28;19912;-70
2022/10/22 00:59:36;;;;;;;;;;;15.20;99.90;;;;;;5030658;28;19920;-70
2022/10/22 01:02:01;;;;;;;;;;;15.20;99.90;;;;;;5029323;28;19905;-71
2022/10/22 01:04:27;;;;;;;;;;;15.30;99.90;;;;;;5032559;28;20312;-70
2022/10/22 01:06:52;;;;;;;;;;;15.30;99.90;;;;;;5037059;28;19912;-69
2022/10/22 01:09:27;;;;;;;;;;;15.30;99.90;;;;;;5032637;28;19932;-70
2022/10/22 01:11:59;;;;;;;;;;;15.20;99.90;;;;;;5017106;28;19909;-70
2022/10/22 01:14:32;;;;;;;;;;;15.20;99.90;;;;;;5017692;28;19928;-70
2022/10/22 01:17:15;;;;;;;;;;;15.30;99.90;;;;;;5017596;28;19920;-69
2022/10/22 01:19:59;;;;;;;;;;;15.30;99.90;;;;;;5018006;28;20377;-70
2022/10/22 01:22:34;;;;;;;;;;;15.30;99.90;;;;;;5016197;28;19945;-69
2022/10/22 01:25:18;;;;;;;;;;;15.30;99.90;;;;;;5016851;28;19921;-70
2022/10/22 01:27:50;;;;;;;;;;;15.40;99.90;;;;;;5017907;28;19905;-70
2022/10/22 01:30:16;;;;;;;;;;;15.50;99.90;;;;;;5019075;28;19909;-70
2022/10/22 01:32:50;;;;;;;;;;;15.50;99.90;;;;;;5017665;28;19928;-70
2022/10/22 01:35:18;;;;;;;;;;;15.50;99.90;;;;;;5016462;28;19909;-70
2022/10/22 01:37:52;;;;;;;;;;;15.50;99.90;;;;;;5030981;28;19920;-68
2022/10/22 01:40:18;;;;;;;;;;;15.50;99.90;;;;;;5037237;28;20341;-70
2022/10/22 01:42:54;;;;;;;;;;;15.50;99.90;;;;;;5038906;28;19909;-70
2022/10/22 01:45:19;;;;;;;;;;;15.40;99.90;;;;;;5039193;28;20066;-71
2022/10/22 01:47:47;;;;;;;;;;;15.30;99.90;;;;;;5037982;28;20468;-70
2022/10/22 01:50:26;;;;;;;;;;;15.30;99.90;;;;;;5036516;28;19990;-69
2022/10/22 01:52:57;;;;;;;;;;;15.30;99.90;;;;;;5037652;28;20365;-70
2022/10/22 01:55:37;;;;;;;;;;;15.20;99.90;;;;;;5036470;28;19909;-70
2022/10/22 01:58:32;;;;;;;;;;;15.20;99.90;;;;;;5037511;28;19905;-70
2022/10/22 02:01:06;;;;;;;;;;;15.20;99.90;;;;;;5000387;28;19924;-70
2022/10/22 02:03:38;;;;;;;;;;;15.10;99.90;;;;;;5034832;28;19905;-68
2022/10/22 02:06:07;;;;;;;;;;;15.00;99.90;;;;;;5035707;28;19928;-70
2022/10/22 02:08:34;;;;;;;;;;;14.90;99.90;;;;;;5036058;28;19920;-70
2022/10/22 02:11:00;;;;;;;;;;;14.80;99.90;;;;;;5034462;28;19905;-70
2022/10/22 02:13:27;;;;;;;;;;;14.80;99.90;;;;;;5034814;28;20388;-70
2022/10/22 02:15:54;;;;;;;;;;;15.00;99.90;;;;;;5036739;28;19905;-68
2022/10/22 02:18:21;;;;;;;;;;;15.00;99.90;;;;;;5035881;28;19956;-69
2022/10/22 02:20:47;;;;;;;;;;;15.00;99.90;;;;;;5035694;28;19909;-69
2022/10/22 02:23:13;;;;;;;;;;;15.00;99.90;;;;;;5034682;28;19911;-70
2022/10/22 02:25:40;;;;;;;;;;;14.90;99.90;;;;;;5035083;28;19940;-70
2022/10/22 02:28:08;;;;;;;;;;;14.90;99.90;;;;;;5035372;28;19913;-69
2022/10/22 02:30:37;;;;;;;;;;;14.90;99.90;;;;;;5036597;28;19905;-69
2022/10/22 02:33:10;;;;;;;;;;;14.80;99.90;;;;;;5035635;28;19912;-70
2022/10/22 02:35:37;;;;;;;;;;;14.90;99.90;;;;;;5036071;28;19909;-69
2022/10/22 02:38:03;;;;;;;;;;;14.80;99.90;;;;;;5035506;28;20350;-70
2022/10/22 02:40:29;;;;;;;;;;;14.80;99.90;;;;;;5033936;28;19920;-70
2022/10/22 02:42:55;;;;;;;;;;;14.70;99.90;;;;;;5035543;28;19916;-69
2022/10/22 02:45:21;;;;;;;;;;;14.70;99.90;;;;;;5035471;28;19985;-69
2022/10/22 02:47:46;;;;;;;;;;;14.70;99.90;;;;;;5034039;28;19916;-69
2022/10/22 02:50:12;;;;;;;;;;;14.80;99.90;;;;;;5035312;28;19905;-68
2022/10/22 02:52:37;;;;;;;;;;;14.80;99.90;;;;;;5035284;28;20358;-68
2022/10/22 02:55:03;;;;;;;;;;;14.80;99.90;;;;;;5033608;28;19909;-69
2022/10/22 02:57:29;;;;;;;;;;;14.80;99.90;;;;;;5033640;28;19945;-69
2022/10/22 02:59:54;;;;;;;;;;;14.80;99.90;;;;;;5034980;28;19909;-69
2022/10/22 03:02:19;;;;;;;;;;;14.70;99.90;;;;;;5033588;28;19955;-69
2022/10/22 03:04:45;;;;;;;;;;;14.70;99.90;;;;;;5035016;28;19909;-69
2022/10/22 03:07:10;;;;;;;;;;;14.70;99.90;;;;;;5034813;28;19909;-70
2022/10/22 03:09:36;;;;;;;;;;;14.50;99.90;;;;;;5033373;28;19928;-69
2022/10/22 03:12:01;;;;;;;;;;;14.40;99.90;;;;;;5035023;28;19912;-70
2022/10/22 03:14:27;;;;;;;;;;;14.40;99.90;;;;;;5034929;28;20051;-70
2022/10/22 03:16:52;;;;;;;;;;;14.50;99.90;;;;;;5034535;28;20352;-70
2022/10/22 03:19:17;;;;;;;;;;;14.70;99.90;;;;;;5035047;28;20372;-69
2022/10/22 03:21:46;;;;;;;;;;;14.80;99.90;;;;;;5035459;28;19992;-69
2022/10/22 03:24:15;;;;;;;;;;;14.80;99.90;;;;;;5035064;28;20006;-69
2022/10/22 03:26:41;;;;;;;;;;;14.80;99.90;;;;;;5033282;28;19948;-69
2022/10/22 03:29:08;;;;;;;;;;;14.70;99.90;;;;;;5033523;28;19935;-69
2022/10/22 03:31:33;;;;;;;;;;;14.70;99.90;;;;;;5033185;28;19905;-70
2022/10/22 03:33:59;;;;;;;;;;;14.70;99.90;;;;;;5033330;28;20281;-69
2022/10/22 03:36:24;;;;;;;;;;;14.80;99.90;;;;;;5033023;28;20242;-69
2022/10/22 03:38:50;;;;;;;;;;;14.80;99.90;;;;;;5034524;28;19918;-69
2022/10/22 03:41:15;;;;;;;;;;;14.80;99.90;;;;;;5034154;28;20393;-70
2022/10/22 03:43:41;;;;;;;;;;;14.80;99.90;;;;;;5033106;28;19996;-70
2022/10/22 03:46:06;;;;;;;;;;;14.80;99.90;;;;;;5034355;28;19912;-70
2022/10/22 03:48:32;;;;;;;;;;;14.80;99.90;;;;;;5033544;28;19966;-70
2022/10/22 03:50:57;;;;;;;;;;;14.70;99.90;;;;;;5034361;28;19905;-70
2022/10/22 03:53:23;;;;;;;;;;;14.60;99.90;;;;;;5034187;28;20020;-68
2022/10/22 03:55:49;;;;;;;;;;;14.50;99.90;;;;;;5033889;28;19951;-69
2022/10/22 03:58:15;;;;;;;;;;;14.40;99.90;;;;;;5032572;28;20488;-69
2022/10/22 04:00:40;;;;;;;;;;;14.40;99.90;;;;;;5033893;28;19909;-69
2022/10/22 04:03:06;;;;;;;;;;;14.50;99.90;;;;;;5034088;28;19912;-69
2022/10/22 04:05:32;;;;;;;;;;;14.50;99.90;;;;;;5033887;28;19955;-69
2022/10/22 04:07:58;;;;;;;;;;;14.50;99.90;;;;;;5033662;28;19955;-69
2022/10/22 04:10:23;;;;;;;;;;;14.40;99.90;;;;;;5033571;28;20350;-69
2022/10/22 04:12:49;;;;;;;;;;;14.40;99.90;;;;;;5033643;28;19951;-69
2022/10/22 04:15:14;;;;;;;;;;;14.40;99.90;;;;;;5033779;28;20342;-69
2022/10/22 04:17:39;;;;;;;;;;;14.30;99.90;;;;;;5033943;28;20003;-69
2022/10/22 04:20:05;;;;;;;;;;;14.30;99.90;;;;;;5033012;28;20291;-69
2022/10/22 04:22:34;;;;;;;;;;;14.30;99.90;;;;;;5033342;28;19905;-69
2022/10/22 04:25:00;;;;;;;;;;;14.40;99.90;;;;;;5034463;28;19905;-69
2022/10/22 04:27:28;;;;;;;;;;;14.30;99.90;;;;;;5031714;28;19974;-69
2022/10/22 04:29:53;;;;;;;;;;;14.30;99.90;;;;;;5032500;28;19905;-69
2022/10/22 04:32:19;;;;;;;;;;;14.30;99.90;;;;;;5033565;28;19912;-69
2022/10/22 04:34:44;;;;;;;;;;;14.30;99.90;;;;;;5032453;28;19912;-69
2022/10/22 04:37:09;;;;;;;;;;;14.30;99.90;;;;;;5033494;28;19912;-69
2022/10/22 04:39:35;;;;;;;;;;;14.30;99.90;;;;;;5032046;28;20320;-69
2022/10/22 04:42:00;;;;;;;;;;;14.30;99.90;;;;;;5033470;28;19928;-69
2022/10/22 04:44:26;;;;;;;;;;;14.30;99.90;;;;;;5033356;28;19916;-69
2022/10/22 04:46:51;;;;;;;;;;;14.30;99.90;;;;;;5033894;28;19905;-69
2022/10/22 04:49:18;;;;;;;;;;;14.30;99.90;;;;;;5036834;28;19905;-69
2022/10/22 04:51:43;;;;;;;;;;;14.30;99.90;;;;;;5034157;28;19912;-69
2022/10/22 04:54:08;;;;;;;;;;;14.20;99.90;;;;;;5037072;28;19905;-69
2022/10/22 04:56:34;;;;;;;;;;;14.20;99.90;;;;;;5040884;28;19912;-70
2022/10/22 04:59:01;;;;;;;;;;;14.20;99.90;;;;;;5034922;28;19911;-70
2022/10/22 05:01:27;;;;;;;;;;;14.10;99.90;;;;;;5034295;28;20389;-70
2022/10/22 05:03:54;;;;;;;;;;;14.10;99.90;;;;;;5033849;28;20341;-70
2022/10/22 05:06:19;;;;;;;;;;;14.20;99.90;;;;;;5032822;28;19905;-69
2022/10/22 05:08:45;;;;;;;;;;;14.30;99.90;;;;;;5033153;28;20365;-69
2022/10/22 05:11:12;;;;;;;;;;;14.20;99.90;;;;;;5031790;28;20253;-69
2022/10/22 05:13:37;;;;;;;;;;;14.20;99.90;;;;;;5033276;28;19905;-69
2022/10/22 05:16:03;;;;;;;;;;;14.20;99.90;;;;;;5033305;28;20380;-69
2022/10/22 05:18:28;;;;;;;;;;;14.20;99.90;;;;;;5033139;28;19955;-69
2022/10/22 05:20:53;;;;;;;;;;;14.20;99.90;;;;;;5033600;28;19909;-69
2022/10/22 05:23:19;;;;;;;;;;;14.20;99.90;;;;;;5031861;28;19905;-69
2022/10/22 05:25:44;;;;;;;;;;;14.10;99.90;;;;;;5032972;28;19916;-69
2022/10/22 05:28:10;;;;;;;;;;;14.10;99.90;;;;;;5031847;28;19993;-69
2022/10/22 05:30:35;;;;;;;;;;;14.20;99.90;;;;;;5033190;28;19915;-69
2022/10/22 05:33:01;;;;;;;;;;;14.20;99.90;;;;;;5033401;28;19932;-69
2022/10/22 05:35:26;;;;;;;;;;;14.10;99.90;;;;;;5033511;28;20300;-69
2022/10/22 05:37:52;;;;;;;;;;;14.10;99.90;;;;;;5033281;28;19913;-71
2022/10/22 05:40:17;;;;;;;;;;;14.10;99.90;;;;;;5034822;28;20388;-69
2022/10/22 05:42:43;;;;;;;;;;;14.10;99.90;;;;;;5036882;28;19919;-69
2022/10/22 05:45:08;;;;;;;;;;;14.00;99.90;;;;;;5036935;28;19905;-70
2022/10/22 05:47:34;;;;;;;;;;;13.90;99.90;;;;;;5037220;28;19905;-70
2022/10/22 05:49:59;;;;;;;;;;;13.90;99.90;;;;;;5037031;28;19905;-70
2022/10/22 05:52:25;;;;;;;;;;;14.00;99.90;;;;;;5038053;28;20434;-69
2022/10/22 05:54:50;;;;;;;;;;;14.10;99.90;;;;;;5036953;28;19905;-70
2022/10/22 05:57:16;;;;;;;;;;;14.00;99.90;;;;;;5036482;28;19905;-70
2022/10/22 05:59:41;;;;;;;;;;;13.90;99.90;;;;;;5035787;28;20273;-70
2022/10/22 06:02:08;;;;;;;;;;;13.90;99.90;;;;;;5037092;28;19968;-70
2022/10/22 06:04:33;;;;;;;;;;;13.80;99.90;;;;;;5037095;28;20409;-70
2022/10/22 06:06:58;;;;;;;;;;;13.70;99.90;;;;;;5036878;28;19948;-70
2022/10/22 06:09:26;;;;;;;;;;;13.80;99.90;;;;;;5036999;28;19908;-70
2022/10/22 06:11:52;;;;;;;;;;;13.80;99.90;;;;;;5036709;28;19905;-69
2022/10/22 06:14:18;;;;;;;;;;;13.90;99.90;;;;;;5036999;28;20408;-70
2022/10/22 06:16:44;;;;;;;;;;;14.00;99.90;;;;;;5036387;28;19906;-69
2022/10/22 06:19:10;;;;;;;;;;;14.10;99.90;;;;;;5036715;28;19912;-69
2022/10/22 06:21:36;;;;;;;;;;;14.00;99.90;;;;;;5039387;28;19909;-69
2022/10/22 06:24:03;;;;;;;;;;;14.20;99.90;;;;;;5038027;28;19996;-68
2022/10/22 06:26:28;;;;;;;;;;;14.10;99.90;;;;;;5039776;28;19912;-69
2022/10/22 06:28:55;;;;;;;;;;;14.00;99.90;;;;;;5044693;28;19905;-68
2022/10/22 06:31:20;;;;;;;;;;;14.00;99.90;;;;;;5043512;28;19928;-69
2022/10/22 06:33:46;;;;;;;;;;;14.00;99.90;;;;;;5046004;28;19905;-69
2022/10/22 06:36:12;;;;;;;;;;;14.10;99.90;;;;;;5044675;28;19944;-69
2022/10/22 06:38:38;;;;;;;;;;;14.10;99.90;;;;;;5045372;28;19912;-70
2022/10/22 06:41:04;;;;;;;;;;;14.00;99.90;;;;;;5048944;28;19931;-69
2022/10/22 06:43:30;;;;;;;;;;;14.00;99.90;;;;;;5055015;28;19952;-71
2022/10/22 06:46:02;;;;;;;;;;;14.10;99.90;;;;;;5045276;28;19916;-70
2022/10/22 06:48:28;;;;;;;;;;;14.10;99.90;;;;;;5045647;28;20259;-70
2022/10/22 06:50:53;;;;;;;;;;;14.30;99.90;;;;;;5041010;28;19909;-70
2022/10/22 06:53:19;;;;;;;;;;;14.40;99.90;;;;;;5040743;28;19905;-72
2022/10/22 06:55:44;;;;;;;;;;;14.30;99.90;;;;;;5039161;28;19905;-70
2022/10/22 06:58:10;;;;;;;;;;;14.30;99.90;;;;;;5036202;28;19921;-70
2022/10/22 07:00:35;;;;;;;;;;;14.20;99.90;;;;;;5036845;28;20380;-70
2022/10/22 07:03:01;;;;;;;;;;;14.20;99.90;;;;;;5038183;28;20366;-71
2022/10/22 07:05:26;;;;;;;;;;;14.10;99.90;;;;;;5037402;28;20345;-70
2022/10/22 07:07:51;;;;;;;;;;;14.20;99.90;;;;;;5034901;28;19940;-70
2022/10/22 07:10:17;;;;;;;;;;;14.20;99.90;;;;;;5035771;28;19905;-71
2022/10/22 07:12:42;;;;;;;;;;;14.30;99.90;;;;;;5034696;28;19905;-70
2022/10/22 07:15:08;;;;;;;;;;;14.50;99.90;;;;;;5035142;28;19905;-70
2022/10/22 07:17:33;;;;;;;;;;;14.60;99.90;;;;;;5034971;28;19905;-71
2022/10/22 07:19:59;;;;;;;;;;;14.60;99.90;;;;;;5034900;28;19916;-69
2022/10/22 07:22:24;;;;;;;;;;;14.60;99.90;;;;;;5033516;28;19905;-69
2022/10/22 07:24:50;;;;;;;;;;;14.60;99.90;;;;;;5033402;28;20373;-70
2022/10/22 07:27:15;;;;;;;;;;;14.60;99.90;;;;;;5033575;28;20387;-69
2022/10/22 07:29:41;;;;;;;;;;;14.70;99.90;;;;;;5033508;28;20297;-69
2022/10/22 07:32:06;;;;;;;;;;;14.70;99.90;;;;;;5034473;28;19905;-70
2022/10/22 07:34:32;;;;;;;;;;;14.70;99.90;;;;;;5033411;28;20007;-71
2022/10/22 07:36:58;;;;;;;;;;;14.70;99.90;;;;;;5034249;28;19909;-69
2022/10/22 07:39:24;;;;;;;;;;;14.60;99.90;;;;;;5034631;28;19960;-69
2022/10/22 07:41:50;;;;;;;;;;;14.50;99.90;;;;;;5033945;28;19911;-69
2022/10/22 07:44:15;;;;;;;;;;;14.40;99.90;;;;;;5033022;28;20004;-69
2022/10/22 07:46:41;;;;;;;;;;;14.40;99.90;;;;;;5034153;28;19911;-69
2022/10/22 07:49:06;;;;;;;;;;;14.40;99.90;;;;;;5033288;28;19913;-69
2022/10/22 07:51:32;;;;;;;;;;;14.50;99.90;;;;;;5033114;28;19912;-70
2022/10/22 07:53:57;;;;;;;;;;;14.50;99.90;;;;;;5033366;28;19912;-72
2022/10/22 07:56:23;;;;;;;;;;;14.60;99.90;;;;;;5032620;28;19920;-72
2022/10/22 07:58:48;;;;;;;;;;;14.60;99.90;;;;;;5034001;28;20375;-72
2022/10/22 08:01:14;;;;;;;;;;;14.90;99.90;;;;;;5033934;28;19924;-67
2022/10/22 08:03:39;;;;;;;;;;;15.00;99.90;;;;;;5034159;28;19904;-72
2022/10/22 08:06:05;;;;;;;;;;;15.10;99.90;;;;;;5032736;28;19909;-68
2022/10/22 08:08:30;;;;;;;;;;;15.30;99.90;;;;;;5032668;28;19999;-70
2022/10/22 08:10:58;;;;;;;;;;;15.40;99.90;;;;;;5034188;28;19991;-71
2022/10/22 08:13:25;;;;;;;;;;;15.50;99.90;;;;;;5034392;28;19905;-70
2022/10/22 08:15:50;;;;;;;;;;;15.50;99.90;;;;;;5033975;28;19912;-70
2022/10/22 08:18:15;;;;;;;;;;;15.60;99.90;;;;;;5033543;28;19905;-71
2022/10/22 08:20:41;;;;;;;;;;;15.80;99.90;;;;;;5032450;28;19909;-72
2022/10/22 08:23:07;;;;;;;;;;;16.00;99.90;;;;;;5033962;28;19909;-72
2022/10/22 08:25:32;;;;;;;;;;;16.10;99.90;;;;;;5032629;28;20393;-72
2022/10/22 08:27:58;;;;;;;;;;;16.10;99.90;;;;;;5032388;28;19905;-67
2022/10/22 08:30:26;;;;;;;;;;;16.00;99.90;;;;;;5033758;28;19992;-66
2022/10/22 08:32:52;;;;;;;;;;;16.00;99.90;;;;;;5032208;28;19905;-66
2022/10/22 08:35:17;;;;;;;;;;;16.10;99.90;;;;;;5033826;28;19912;-65
2022/10/22 08:37:43;;;;;;;;;;;16.00;99.90;;;;;;5033308;28;19913;-65
2022/10/22 08:40:11;;;;;;;;;;;16.00;99.90;;;;;;5033199;28;19913;-66
2022/10/22 08:42:50;;;;;;;;;;;16.00;99.90;;;;;;5033443;28;19908;-66
2022/10/22 08:45:40;;;;;;;;;;;15.80;99.90;;;;;;5032568;28;19909;-70
2022/10/22 08:48:24;;;;;;;;;;;15.80;99.90;;;;;;4991943;28;19909;-71
2022/10/22 08:50:51;;;;;;;;;;;15.80;99.90;;;;;;4992188;28;19988;-72
2022/10/22 08:53:18;;;;;;;;;;;15.90;99.90;;;;;;4976044;28;19913;-66
2022/10/22 08:55:44;;;;;;;;;;;16.00;99.90;;;;;;4992252;28;19905;-71
2022/10/22 08:58:17;;;;;;;;;;;16.10;99.90;;;;;;4992031;28;20426;-75
2022/10/22 09:01:18;;;;;;;;;;;16.10;99.90;;;;;;4975944;28;19965;-73
2022/10/22 09:03:43;;;;;;;;;;;16.20;99.90;;;;;;4935011;29;19913;-72
2022/10/22 09:06:13;;;;;;;;;;;16.30;99.90;;;;;;4981094;28;20374;-68
2022/10/22 09:08:41;;;;;;;;;;;16.90;99.90;;;;;;4992470;28;20358;-68
2022/10/22 09:11:12;;;;;;;;;;;17.70;99.90;;;;;;4994126;28;19913;-74
2022/10/22 09:13:42;;;;;;;;;;;18.00;99.90;;;;;;4977772;28;19917;-69
2022/10/22 09:16:10;;;;;;;;;;;18.20;99.90;;;;;;4996315;28;20004;-71
2022/10/22 09:18:41;;;;;;;;;;;18.30;99.90;;;;;;4996888;28;19909;-70
2022/10/22 09:21:10;;;;;;;;;;;18.40;99.90;;;;;;4980023;28;19909;-73
2022/10/22 09:23:35;;;;;;;;;;;18.60;99.90;;;;;;4997557;28;20167;-70
2022/10/22 09:26:01;;;;;;;;;;;18.80;99.90;;;;;;5016191;28;19917;-72
2022/10/22 09:28:26;;;;;;;;;;;19.30;99.90;;;;;;5019210;28;19913;-71
2022/10/22 09:30:51;;;;;;;;;;;19.60;99.90;;;;;;5018447;28;20382;-73
2022/10/22 09:33:20;;;;;;;;;;;19.70;99.90;;;;;;5016619;28;19905;-71
2022/10/22 09:35:57;;;;;;;;;;;19.50;99.90;;;;;;5016595;28;19987;-69
2022/10/22 09:38:30;;;;;;;;;;;19.60;99.90;;;;;;5016834;28;19914;-71
2022/10/22 09:40:56;;;;;;;;;;;19.60;99.90;;;;;;5016741;28;19909;-71
2022/10/22 09:43:21;;;;;;;;;;;19.60;99.90;;;;;;5017038;28;19905;-71
2022/10/22 09:45:47;;;;;;;;;;;20.10;99.90;;;;;;5018869;28;19955;-72
2022/10/22 09:48:13;;;;;;;;;;;20.10;99.90;;;;;;5016266;28;19906;-73
2022/10/22 09:50:43;;;;;;;;;;;20.60;99.90;;;;;;5019590;28;19920;-74
2022/10/22 09:53:21;;;;;;;;;;;20.90;99.90;;;;;;5020359;28;19906;-74
2022/10/22 09:55:55;;;;;;;;;;;21.70;99.90;;;;;;5020018;28;19906;-74
2022/10/22 09:58:21;;;;;;;;;;;23.40;99.90;;;;;;5016131;28;19954;-72
2022/10/22 10:00:50;;;;;;;;;;;23.70;99.90;;;;;;5015979;28;19913;-72
2022/10/22 10:03:17;;;;;;;;;;;24.20;99.90;;;;;;5015468;28;19910;-71
2022/10/22 10:05:45;;;;;;;;;;;26.10;99.90;;;;;;5015382;28;19955;-72
2022/10/22 10:08:12;;;;;;;;;;;26.70;99.90;;;;;;5034841;28;19940;-72
2022/10/22 10:10:44;;;;;;;;;;;27.50;98.90;;;;;;5034720;28;20354;-71
2022/10/22 10:13:33;;;;;;;;;;;28.30;98.10;;;;;;5034988;28;20006;-71
2022/10/22 10:16:11;;;;;;;;;;;28.90;96.20;;;;;;5034890;28;20417;-71
2022/10/22 10:19:15;;;;;;;;;;;29.40;95.40;;;;;;5035958;28;19909;-74
2022/10/22 10:21:41;;;;;;;;;;;28.90;95.40;;;;;;4994773;28;19916;-73
2022/10/22 10:24:23;;;;;;;;;;;30.20;94.00;;;;;;4994673;28;19988;-73
2022/10/22 10:27:03;;;;;;;;;;;30.50;93.50;;;;;;4976936;28;20354;-69
2022/10/22 10:29:32;;;;;;;;;;;31.40;92.00;;;;;;4978275;28;19933;-75
2022/10/22 10:32:00;;;;;;;;;;;31.30;91.00;;;;;;4995263;28;20437;-71
2022/10/22 10:34:28;;;;;;;;;;;31.40;90.80;;;;;;4994340;28;19914;-71
2022/10/22 10:37:03;;;;;;;;;;;31.80;89.70;;;;;;4994281;28;19910;-70
2022/10/22 10:39:31;;;;;;;;;;;32.10;89.40;;;;;;4977543;28;19910;-70
2022/10/22 10:42:07;;;;;;;;;;;29.20;90.60;;;;;;4993747;28;19917;-69
2022/10/22 10:44:44;;;;;;;;;;;28.10;92.40;;;;;;4994100;28;19967;-70
2022/10/22 10:47:45;;;;;;;;;;;27.60;93.00;;;;;;4977520;28;20016;-70
2022/10/22 10:50:13;;;;;;;;;;;26.40;94.50;;;;;;4917205;29;20411;-70
2022/10/22 10:52:43;;;;;;;;;;;24.50;97.00;;;;;;4992180;28;19945;-70
2022/10/22 10:55:27;;;;;;;;;;;23.50;99.20;;;;;;5016231;28;20355;-70
2022/10/22 10:57:59;;;;;;;;;;;22.40;99.90;;;;;;5016533;28;19932;-70
2022/10/22 11:00:26;;;;;;;;;;;21.80;99.90;;;;;;5015615;28;20393;-70
2022/10/22 11:03:10;;;;;;;;;;;21.40;99.90;;;;;;5015577;28;19905;-69
2022/10/22 11:05:42;;;;;;;;;;;21.10;99.90;;;;;;5015498;28;19909;-70
2022/10/22 11:08:17;;;;;;;;;;;20.90;99.90;;;;;;5033253;28;19905;-70
2022/10/22 11:10:45;;;;;;;;;;;20.60;99.90;;;;;;5035432;28;19913;-69
2022/10/22 11:13:16;;;;;;;;;;;20.70;99.90;;;;;;5035290;28;19909;-70
2022/10/22 11:15:45;;;;;;;;;;;20.60;99.90;;;;;;5033874;28;19912;-69
2022/10/22 11:18:17;;;;;;;;;;;20.60;99.90;;;;;;5035067;28;19905;-69
2022/10/22 11:20:47;;;;;;;;;;;20.50;99.90;;;;;;5035301;28;19909;-75
2022/10/22 11:23:15;;;;;;;;;;;20.40;99.90;;;;;;5034964;28;20015;-72
2022/10/22 11:25:43;;;;;;;;;;;20.40;99.90;;;;;;5036715;28;19909;-73
2022/10/22 11:28:31;;;;;;;;;;;20.30;99.90;;;;;;5036015;28;19905;-72
2022/10/22 11:31:08;;;;;;;;;;;20.50;99.90;;;;;;5034771;28;20003;-73
2022/10/22 11:33:42;;;;;;;;;;;20.60;99.90;;;;;;5034021;28;19905;-71
2022/10/22 11:36:09;;;;;;;;;;;20.70;99.90;;;;;;5034397;28;20003;-72
2022/10/22 11:38:35;;;;;;;;;;;20.70;99.90;;;;;;5033009;28;20388;-71
2022/10/22 11:41:11;;;;;;;;;;;20.60;99.90;;;;;;5013369;28;19913;-72
2022/10/22 11:43:56;;;;;;;;;;;20.70;99.90;;;;;;5030016;28;19905;-72
2022/10/22 11:46:21;;;;;;;;;;;20.60;99.90;;;;;;5030042;28;19906;-70
2022/10/22 11:49:01;;;;;;;;;;;20.60;99.90;;;;;;5014757;28;19913;-70
2022/10/22 11:51:37;;;;;;;;;;;20.60;99.90;;;;;;5014909;28;20278;-70
2022/10/22 11:54:22;;;;;;;;;;;20.60;99.90;;;;;;5014671;28;19905;-70
2022/10/22 11:56:51;;;;;;;;;;;20.60;99.90;;;;;;5029136;28;19916;-70
2022/10/22 11:59:35;;;;;;;;;;;20.60;99.90;;;;;;5014624;28;19909;-70
2022/10/22 12:02:00;;;;;;;;;;;20.60;99.90;;;;;;5014367;28;19935;-71
2022/10/22 12:04:39;;;;;;;;;;;20.70;99.90;;;;;;5014388;28;19909;-70
2022/10/22 12:07:24;;;;;;;;;;;20.70;99.90;;;;;;5023579;28;19908;-71
2022/10/22 12:09:50;;;;;;;;;;;20.80;99.90;;;;;;5032491;28;19989;-71
2022/10/22 12:12:19;;;;;;;;;;;20.80;99.90;;;;;;5033808;28;19909;-72
2022/10/22 12:14:52;;;;;;;;;;;20.80;99.90;;;;;;5034244;28;20298;-71
2022/10/22 12:17:18;;;;;;;;;;;20.80;99.90;;;;;;5035236;28;20258;-71
2022/10/22 12:19:45;;;;;;;;;;;20.80;99.90;;;;;;5033674;28;19964;-72
2022/10/22 12:22:10;;;;;;;;;;;20.80;99.90;;;;;;5036608;28;20321;-73
2022/10/22 12:24:39;;;;;;;;;;;20.80;99.90;;;;;;5037187;28;19913;-72
2022/10/22 12:27:15;;;;;;;;;;;20.90;99.90;;;;;;5036668;28;19905;-71
2022/10/22 12:29:41;;;;;;;;;;;20.90;99.90;;;;;;5032778;28;19905;-71
2022/10/22 12:32:06;;;;;;;;;;;20.80;99.90;;;;;;5034178;28;20118;-71
2022/10/22 12:34:31;;;;;;;;;;;20.80;99.90;;;;;;5034194;28;19909;-71
2022/10/22 12:36:57;;;;;;;;;;;20.80;99.90;;;;;;5033626;28;19913;-72
2022/10/22 12:39:26;;;;;;;;;;;20.80;99.90;;;;;;5032643;28;19962;-71
2022/10/22 12:41:53;;;;;;;;;;;20.80;99.90;;;;;;5032149;28;19905;-71
2022/10/22 12:44:18;;;;;;;;;;;21.00;99.90;;;;;;5032615;28;19912;-71
2022/10/22 12:46:46;;;;;;;;;;;21.00;99.90;;;;;;5032737;28;19996;-72
2022/10/22 12:49:17;;;;;;;;;;;21.20;99.90;;;;;;5035336;28;19915;-72
2022/10/22 12:51:44;;;;;;;;;;;21.20;99.90;;;;;;5034139;28;19913;-71
2022/10/22 12:54:17;;;;;;;;;;;21.30;99.90;;;;;;5032910;28;19905;-71
2022/10/22 12:56:45;;;;;;;;;;;21.30;99.90;;;;;;5017092;28;20384;-71
2022/10/22 12:59:18;;;;;;;;;;;21.30;99.90;;;;;;5033195;28;19905;-73
2022/10/22 13:01:43;;;;;;;;;;;21.30;99.90;;;;;;5033249;28;19909;-72
2022/10/22 13:04:12;;;;;;;;;;;21.30;99.90;;;;;;5040525;28;20376;-72
2022/10/22 13:06:42;;;;;;;;;;;21.30;99.90;;;;;;5031901;28;19940;-71
2022/10/22 13:09:16;;;;;;;;;;;21.30;99.90;;;;;;5032699;28;19951;-72
2022/10/22 13:12:03;;;;;;;;;;;21.30;99.90;;;;;;5037102;28;20325;-72
2022/10/22 13:14:38;;;;;;;;;;;21.20;99.90;;;;;;5036365;28;19944;-71
2022/10/22 13:17:17;;;;;;;;;;;21.20;99.90;;;;;;5036209;28;19905;-71
2022/10/22 13:20:00;;;;;;;;;;;21.20;99.90;;;;;;5037505;28;19959;-71
2022/10/22 13:22:32;;;;;;;;;;;21.10;99.90;;;;;;5036213;28;19909;-71
2022/10/22 13:24:58;;;;;;;;;;;21.10;99.90;;;;;;5037451;28;20313;-70
2022/10/22 13:27:25;;;;;;;;;;;21.60;99.90;;;;;;5035501;28;19991;-70
2022/10/22 13:29:50;;;;;;;;;;;21.70;99.90;;;;;;5037620;28;19905;-68
2022/10/22 13:32:22;;;;;;;;;;;21.50;99.90;;;;;;5037110;28;19916;-69
2022/10/22 13:34:50;;;;;;;;;;;21.40;99.90;;;;;;5035533;28;19905;-71
2022/10/22 13:37:15;;;;;;;;;;;21.30;99.90;;;;;;5035814;28;19924;-70
2022/10/22 13:39:41;;;;;;;;;;;21.30;99.90;;;;;;5035945;28;19905;-70
2022/10/22 13:42:10;;;;;;;;;;;21.10;99.90;;;;;;5036793;28;19905;-69
2022/10/22 13:44:36;;;;;;;;;;;21.00;99.90;;;;;;5037009;28;19909;-72
2022/10/22 13:47:01;;;;;;;;;;;21.00;99.90;;;;;;5036938;28;19999;-76
2022/10/22 13:49:27;;;;;;;;;;;21.00;99.90;;;;;;5035738;28;19994;-75
2022/10/22 13:51:52;;;;;;;;;;;20.90;99.90;;;;;;5036811;28;19959;-76
2022/10/22 13:54:19;;;;;;;;;;;20.90;99.90;;;;;;5036665;28;19905;-75
2022/10/22 13:56:45;;;;;;;;;;;21.00;99.90;;;;;;5034889;28;19952;-71
2022/10/22 13:59:10;;;;;;;;;;;20.90;99.90;;;;;;5035916;28;19905;-75
2022/10/22 14:01:36;;;;;;;;;;;21.00;99.90;;;;;;5037283;28;19917;-72
2022/10/22 14:04:03;;;;;;;;;;;21.00;99.90;;;;;;5036499;28;19905;-72
2022/10/22 14:06:30;;;;;;;;;;;21.00;99.90;;;;;;5038496;28;20000;-73
2022/10/22 14:08:57;;;;;;;;;;;21.10;99.90;;;;;;5037046;28;20421;-73
2022/10/22 14:11:23;;;;;;;;;;;20.90;99.90;;;;;;5037710;28;19905;-72
2022/10/22 14:13:49;;;;;;;;;;;20.80;99.90;;;;;;5036013;28;19905;-73
2022/10/22 14:16:18;;;;;;;;;;;20.80;99.90;;;;;;5035673;28;19951;-73
2022/10/22 14:18:44;;;;;;;;;;;20.90;99.90;;;;;;5035118;28;19984;-73
2022/10/22 14:21:11;;;;;;;;;;;20.90;99.90;;;;;;5036067;28;20011;-72
2022/10/22 14:23:38;;;;;;;;;;;20.90;99.90;;;;;;5036194;28;19905;-72